CPX717 Details

Departure: Miami International Airport (KMIA)
Arrival: General Omar Torrijos International Airport (MPTO) at N/A
Route: EONNS2 EONNS A509 URSUS UA301 UCA UG437 MARMA OSUPA
Notes:


Current Weather Information
KMIA 231353Z 12008KT 10SM FEW010 FEW022 SCT250 30/23 A3001 RMK AO2 SLP162 T03000233
MPTO 231400Z 04003KT 9999 SCT016TCU SCT090 26/23 Q1011 RWY DAMP NOSIG